sensor_id;sensor_type;location;lat;lon;timestamp;temperature;humidity
17948;DHT22;9099;47.958;11.366;2024-02-15T00:02:22;9.20;99.90
17948;DHT22;9099;47.958;11.366;2024-02-15T00:04:49;9.30;99.90
17948;DHT22;9099;47.958;11.366;2024-02-15T00:07:16;9.30;99.90
17948;DHT22;9099;47.958;11.366;2024-02-15T00:09:43;9.30;99.90
17948;DHT22;9099;47.958;11.366;2024-02-15T00:12:11;9.40;99.90
17948;DHT22;9099;47.958;11.366;2024-02-15T00:14:38;9.40;99.90
17948;DHT22;9099;47.958;11.366;2024-02-15T00:17:05;9.40;99.90
17948;DHT22;9099;47.958;11.366;2024-02-15T00:19:32;9.40;99.90
17948;DHT22;9099;47.958;11.366;2024-02-15T00:21:59;9.50;99.90
17948;DHT22;9099;47.958;11.366;2024-02-15T00:24:26;9.60;99.90
17948;DHT22;9099;47.958;11.366;2024-02-15T00:26:53;9.60;99.90
17948;DHT22;9099;47.958;11.366;2024-02-15T00:29:22;9.70;99.90
17948;DHT22;9099;47.958;11.366;2024-02-15T00:31:50;9.80;99.90
17948;DHT22;9099;47.958;11.366;2024-02-15T00:34:17;9.80;99.90
17948;DHT22;9099;47.958;11.366;2024-02-15T00:36:44;9.80;99.90
17948;DHT22;9099;47.958;11.366;2024-02-15T00:39:11;9.80;99.90
17948;DHT22;9099;47.958;11.366;2024-02-15T00:41:39;9.80;99.90
17948;DHT22;9099;47.958;11.366;2024-02-15T00:44:08;9.80;99.90
17948;DHT22;9099;47.958;11.366;2024-02-15T00:46:37;9.90;99.90
17948;DHT22;9099;47.958;11.366;2024-02-15T00:49:04;9.90;99.90
17948;DHT22;9099;47.958;11.366;2024-02-15T00:51:32;9.80;99.90
17948;DHT22;9099;47.958;11.366;2024-02-15T00:53:59;9.90;99.90
17948;DHT22;9099;47.958;11.366;2024-02-15T00:56:26;9.80;99.90
17948;DHT22;9099;47.958;11.366;2024-02-15T00:58:55;9.70;99.90
17948;DHT22;9099;47.958;11.366;2024-02-15T01:01:22;9.50;99.90
17948;DHT22;9099;47.958;11.366;2024-02-15T01:03:50;9.50;99.90
17948;DHT22;9099;47.958;11.366;2024-02-15T01:06:17;9.40;99.90
17948;DHT22;9099;47.958;11.366;2024-02-15T01:08:44;9.40;99.90
17948;DHT22;9099;47.958;11.366;2024-02-15T01:11:11;9.40;99.90
17948;DHT22;9099;47.958;11.366;2024-02-15T01:13:39;9.30;99.90
17948;DHT22;9099;47.958;11.366;2024-02-15T01:16:07;9.20;99.90
17948;DHT22;9099;47.958;11.366;2024-02-15T01:18:34;9.10;99.90
17948;DHT22;9099;47.958;11.366;2024-02-15T01:21:02;9.00;99.90
17948;DHT22;9099;47.958;11.366;2024-02-15T01:23:29;9.00;99.90
17948;DHT22;9099;47.958;11.366;2024-02-15T01:25:56;8.90;99.90
17948;DHT22;9099;47.958;11.366;2024-02-15T01:28:23;8.90;99.90
17948;DHT22;9099;47.958;11.366;2024-02-15T01:30:50;8.80;99.90
17948;DHT22;9099;47.958;11.366;2024-02-15T01:33:17;8.80;99.90
17948;DHT22;9099;47.958;11.366;2024-02-15T01:35:44;8.70;99.90
17948;DHT22;9099;47.958;11.366;2024-02-15T01:38:12;8.70;99.90
17948;DHT22;9099;47.958;11.366;2024-02-15T01:40:39;8.70;99.90
17948;DHT22;9099;47.958;11.366;2024-02-15T01:43:06;8.70;99.90
17948;DHT22;9099;47.958;11.366;2024-02-15T01:45:33;8.70;99.90
17948;DHT22;9099;47.958;11.366;2024-02-15T01:47:59;8.80;99.90
17948;DHT22;9099;47.958;11.366;2024-02-15T01:50:29;8.80;99.90
17948;DHT22;9099;47.958;11.366;2024-02-15T01:52:58;8.80;99.90
17948;DHT22;9099;47.958;11.366;2024-02-15T01:55:27;8.80;99.90
17948;DHT22;9099;47.958;11.366;2024-02-15T01:57:54;8.80;99.90
17948;DHT22;9099;47.958;11.366;2024-02-15T02:00:21;8.70;99.90
17948;DHT22;9099;47.958;11.366;2024-02-15T02:02:49;8.70;99.90
17948;DHT22;9099;47.958;11.366;2024-02-15T02:05:17;8.70;99.90
17948;DHT22;9099;47.958;11.366;2024-02-15T02:07:44;8.80;99.90
17948;DHT22;9099;47.958;11.366;2024-02-15T02:10:12;8.80;99.90
17948;DHT22;9099;47.958;11.366;2024-02-15T02:12:41;8.80;99.90
17948;DHT22;9099;47.958;11.366;2024-02-15T02:15:09;8.90;99.90
17948;DHT22;9099;47.958;11.366;2024-02-15T02:17:37;8.90;99.90
17948;DHT22;9099;47.958;11.366;2024-02-15T02:20:06;9.00;99.90
17948;DHT22;9099;47.958;11.366;2024-02-15T02:22:36;9.00;99.90
17948;DHT22;9099;47.958;11.366;2024-02-15T02:25:06;9.00;99.90
17948;DHT22;9099;47.958;11.366;2024-02-15T02:27:34;9.10;99.90
17948;DHT22;9099;47.958;11.366;2024-02-15T02:30:03;9.00;99.90
17948;DHT22;9099;47.958;11.366;2024-02-15T02:32:33;9.00;99.90
17948;DHT22;9099;47.958;11.366;2024-02-15T02:35:01;9.00;99.90
17948;DHT22;9099;47.958;11.366;2024-02-15T02:37:29;8.90;99.90
17948;DHT22;9099;47.958;11.366;2024-02-15T02:39:55;8.90;99.90
17948;DHT22;9099;47.958;11.366;2024-02-15T02:42:23;9.00;99.90
17948;DHT22;9099;47.958;11.366;2024-02-15T02:44:50;9.00;99.90
17948;DHT22;9099;47.958;11.366;2024-02-15T02:47:17;9.00;99.90
17948;DHT22;9099;47.958;11.366;2024-02-15T02:49:44;8.90;99.90
17948;DHT22;9099;47.958;11.366;2024-02-15T02:52:11;8.90;99.90
17948;DHT22;9099;47.958;11.366;2024-02-15T02:54:38;8.80;99.90
17948;DHT22;9099;47.958;11.366;2024-02-15T02:57:05;8.70;99.90
17948;DHT22;9099;47.958;11.366;2024-02-15T02:59:34;8.70;99.90
17948;DHT22;9099;47.958;11.366;2024-02-15T03:02:01;8.80;99.90
17948;DHT22;9099;47.958;11.366;2024-02-15T03:04:30;8.80;99.90
17948;DHT22;9099;47.958;11.366;2024-02-15T03:06:58;8.80;99.90
17948;DHT22;9099;47.958;11.366;2024-02-15T03:09:25;8.80;99.90
17948;DHT22;9099;47.958;11.366;2024-02-15T03:11:54;8.80;99.90
17948;DHT22;9099;47.958;11.366;2024-02-15T03:14:21;8.80;99.90
17948;DHT22;9099;47.958;11.366;2024-02-15T03:16:50;8.70;99.90
17948;DHT22;9099;47.958;11.366;2024-02-15T03:19:16;8.60;99.90
17948;DHT22;9099;47.958;11.366;2024-02-15T03:21:43;8.60;99.90
17948;DHT22;9099;47.958;11.366;2024-02-15T03:24:12;8.60;99.90
17948;DHT22;9099;47.958;11.366;2024-02-15T03:26:39;8.50;99.90
17948;DHT22;9099;47.958;11.366;2024-02-15T03:29:08;8.30;99.90
17948;DHT22;9099;47.958;11.366;2024-02-15T03:31:35;8.30;99.90
17948;DHT22;9099;47.958;11.366;2024-02-15T03:34:04;8.30;99.90
17948;DHT22;9099;47.958;11.366;2024-02-15T03:36:31;8.20;99.90
17948;DHT22;9099;47.958;11.366;2024-02-15T03:38:59;8.30;99.90
17948;DHT22;9099;47.958;11.366;2024-02-15T03:41:27;8.30;99.90
17948;DHT22;9099;47.958;11.366;2024-02-15T03:43:58;8.30;99.90
17948;DHT22;9099;47.958;11.366;2024-02-15T03:46:25;8.30;99.90
17948;DHT22;9099;47.958;11.366;2024-02-15T03:48:53;8.30;99.90
17948;DHT22;9099;47.958;11.366;2024-02-15T03:51:24;8.30;99.90
17948;DHT22;9099;47.958;11.366;2024-02-15T03:53:50;8.30;99.90
17948;DHT22;9099;47.958;11.366;2024-02-15T03:56:18;8.30;99.90
17948;DHT22;9099;47.958;11.366;2024-02-15T03:58:46;8.20;99.90
17948;DHT22;9099;47.958;11.366;2024-02-15T04:01:13;8.20;99.90
17948;DHT22;9099;47.958;11.366;2024-02-15T04:03:41;8.20;99.90
17948;DHT22;9099;47.958;11.366;2024-02-15T04:06:08;8.10;99.90
17948;DHT22;9099;47.958;11.366;2024-02-15T04:08:38;8.10;99.90
17948;DHT22;9099;47.958;11.366;2024-02-15T04:11:05;8.00;99.90
17948;DHT22;9099;47.958;11.366;2024-02-15T04:13:33;8.00;99.90
17948;DHT22;9099;47.958;11.366;2024-02-15T04:16:00;7.90;99.90
17948;DHT22;9099;47.958;11.366;2024-02-15T04:18:26;7.90;99.90
17948;DHT22;9099;47.958;11.366;2024-02-15T04:20:58;7.80;99.90
17948;DHT22;9099;47.958;11.366;2024-02-15T04:23:24;7.80;99.90
17948;DHT22;9099;47.958;11.366;2024-02-15T04:25:53;7.80;99.90
17948;DHT22;9099;47.958;11.366;2024-02-15T04:28:19;7.70;99.90
17948;DHT22;9099;47.958;11.366;2024-02-15T04:30:46;7.70;99.90
17948;DHT22;9099;47.958;11.366;2024-02-15T04:33:14;7.60;99.90
17948;DHT22;9099;47.958;11.366;2024-02-15T04:35:42;7.60;99.90
17948;DHT22;9099;47.958;11.366;2024-02-15T04:38:09;7.60;99.90
17948;DHT22;9099;47.958;11.366;2024-02-15T04:40:36;7.60;99.90
17948;DHT22;9099;47.958;11.366;2024-02-15T04:43:06;7.50;99.90
17948;DHT22;9099;47.958;11.366;2024-02-15T04:45:34;7.50;99.90
17948;DHT22;9099;47.958;11.366;2024-02-15T04:48:01;7.50;99.90
17948;DHT22;9099;47.958;11.366;2024-02-15T04:50:28;7.40;99.90
17948;DHT22;9099;47.958;11.366;2024-02-15T04:52:55;7.40;99.90
17948;DHT22;9099;47.958;11.366;2024-02-15T04:55:22;7.40;99.90
17948;DHT22;9099;47.958;11.366;2024-02-15T04:57:51;7.30;99.90
17948;DHT22;9099;47.958;11.366;2024-02-15T05:00:23;7.20;99.90
17948;DHT22;9099;47.958;11.366;2024-02-15T05:02:51;7.20;99.90
17948;DHT22;9099;47.958;11.366;2024-02-15T05:05:18;7.20;99.90
17948;DHT22;9099;47.958;11.366;2024-02-15T05:07:46;7.20;99.90
17948;DHT22;9099;47.958;11.366;2024-02-15T05:10:14;7.20;99.90
17948;DHT22;9099;47.958;11.366;2024-02-15T05:12:41;7.10;99.90
17948;DHT22;9099;47.958;11.366;2024-02-15T05:15:09;7.10;99.90
17948;DHT22;9099;47.958;11.366;2024-02-15T05:17:38;7.00;99.90
17948;DHT22;9099;47.958;11.366;2024-02-15T05:20:08;7.00;99.90
17948;DHT22;9099;47.958;11.366;2024-02-15T05:22:37;7.00;99.90
17948;DHT22;9099;47.958;11.366;2024-02-15T05:25:06;7.00;99.90
17948;DHT22;9099;47.958;11.366;2024-02-15T05:27:33;6.90;99.90
17948;DHT22;9099;47.958;11.366;2024-02-15T05:30:02;6.90;99.90
17948;DHT22;9099;47.958;11.366;2024-02-15T05:32:32;6.80;99.90
17948;DHT22;9099;47.958;11.366;2024-02-15T05:35:01;6.80;99.90
17948;DHT22;9099;47.958;11.366;2024-02-15T05:37:29;6.80;99.90
17948;DHT22;9099;47.958;11.366;2024-02-15T05:39:55;6.70;99.90
17948;DHT22;9099;47.958;11.366;2024-02-15T05:42:22;6.70;99.90
17948;DHT22;9099;47.958;11.366;2024-02-15T05:44:50;6.60;99.90
17948;DHT22;9099;47.958;11.366;2024-02-15T05:47:17;6.60;99.90
17948;DHT22;9099;47.958;11.366;2024-02-15T05:49:43;6.50;99.90
17948;DHT22;9099;47.958;11.366;2024-02-15T05:52:13;6.50;99.90
17948;DHT22;9099;47.958;11.366;2024-02-15T05:54:39;6.50;99.90
17948;DHT22;9099;47.958;11.366;2024-02-15T05:57:07;6.50;99.90
17948;DHT22;9099;47.958;11.366;2024-02-15T05:59:34;6.40;99.90
17948;DHT22;9099;47.958;11.366;2024-02-15T06:02:01;6.40;99.90
17948;DHT22;9099;47.958;11.366;2024-02-15T06:04:28;6.40;99.90
17948;DHT22;9099;47.958;11.366;2024-02-15T06:06:56;6.40;99.90
17948;DHT22;9099;47.958;11.366;2024-02-15T06:09:27;6.30;99.90
17948;DHT22;9099;47.958;11.366;2024-02-15T06:11:56;6.30;99.90
17948;DHT22;9099;47.958;11.366;2024-02-15T06:14:23;6.30;99.90
17948;DHT22;9099;47.958;11.366;2024-02-15T06:16:51;6.30;99.90
17948;DHT22;9099;47.958;11.366;2024-02-15T06:19:20;6.20;99.90
17948;DHT22;9099;47.958;11.366;2024-02-15T06:21:47;6.20;99.90
17948;DHT22;9099;47.958;11.366;2024-02-15T06:24:14;6.20;99.90
17948;DHT22;9099;47.958;11.366;2024-02-15T06:26:43;6.20;99.90
17948;DHT22;9099;47.958;11.366;2024-02-15T06:29:10;6.10;99.90
17948;DHT22;9099;47.958;11.366;2024-02-15T06:31:55;6.10;99.90
17948;DHT22;9099;47.958;11.366;2024-02-15T06:34:39;6.10;99.90
17948;DHT22;9099;47.958;11.366;2024-02-15T06:37:36;6.10;99.90
17948;DHT22;9099;47.958;11.366;2024-02-15T06:40:20;6.20;99.90
17948;DHT22;9099;47.958;11.366;2024-02-15T06:42:49;6.30;99.90
17948;DHT22;9099;47.958;11.366;2024-02-15T06:45:17;6.40;99.90
17948;DHT22;9099;47.958;11.366;2024-02-15T06:47:45;6.40;99.90
17948;DHT22;9099;47.958;11.366;2024-02-15T06:50:12;6.40;99.90
17948;DHT22;9099;47.958;11.366;2024-02-15T06:52:40;6.50;99.90
17948;DHT22;9099;47.958;11.366;2024-02-15T06:55:08;6.60;99.90
17948;DHT22;9099;47.958;11.366;2024-02-15T06:57:37;6.60;99.90
17948;DHT22;9099;47.958;11.366;2024-02-15T07:00:10;6.60;99.90
17948;DHT22;9099;47.958;11.366;2024-02-15T07:02:40;6.60;99.90
17948;DHT22;9099;47.958;11.366;2024-02-15T07:05:09;6.60;99.90
17948;DHT22;9099;47.958;11.366;2024-02-15T07:07:36;6.60;99.90
17948;DHT22;9099;47.958;11.366;2024-02-15T07:10:05;6.90;99.90
17948;DHT22;9099;47.958;11.366;2024-02-15T07:12:32;7.30;99.90
17948;DHT22;9099;47.958;11.366;2024-02-15T07:14:59;7.70;99.90
17948;DHT22;9099;47.958;11.366;2024-02-15T07:17:28;8.10;99.90
17948;DHT22;9099;47.958;11.366;2024-02-15T07:19:55;8.60;99.90
17948;DHT22;9099;47.958;11.366;2024-02-15T07:22:22;9.20;99.90
17948;DHT22;9099;47.958;11.366;2024-02-15T07:24:48;10.00;99.90
17948;DHT22;9099;47.958;11.366;2024-02-15T07:27:15;10.80;99.90
17948;DHT22;9099;47.958;11.366;2024-02-15T07:29:44;11.50;99.90
17948;DHT22;9099;47.958;11.366;2024-02-15T07:32:10;12.20;99.90
17948;DHT22;9099;47.958;11.366;2024-02-15T07:34:39;12.90;99.90
17948;DHT22;9099;47.958;11.366;2024-02-15T07:37:07;13.60;99.90
17948;DHT22;9099;47.958;11.366;2024-02-15T07:39:34;13.70;99.90
17948;DHT22;9099;47.958;11.366;2024-02-15T07:42:02;13.80;99.90
17948;DHT22;9099;47.958;11.366;2024-02-15T07:44:30;14.40;99.90
17948;DHT22;9099;47.958;11.366;2024-02-15T07:46:58;14.70;99.90
17948;DHT22;9099;47.958;11.366;2024-02-15T07:49:26;15.20;99.90
17948;DHT22;9099;47.958;11.366;2024-02-15T07:51:54;15.70;99.90
17948;DHT22;9099;47.958;11.366;2024-02-15T07:54:22;16.10;99.90
17948;DHT22;9099;47.958;11.366;2024-02-15T07:56:49;16.40;99.90
17948;DHT22;9099;47.958;11.366;2024-02-15T07:59:17;16.60;99.90
17948;DHT22;9099;47.958;11.366;2024-02-15T08:01:44;17.00;99.90
17948;DHT22;9099;47.958;11.366;2024-02-15T08:04:13;17.60;99.90
17948;DHT22;9099;47.958;11.366;2024-02-15T08:06:39;18.10;99.90
17948;DHT22;9099;47.958;11.366;2024-02-15T08:09:08;18.90;99.90
17948;DHT22;9099;47.958;11.366;2024-02-15T08:11:39;19.40;99.90
17948;DHT22;9099;47.958;11.366;2024-02-15T08:14:06;19.80;99.90
17948;DHT22;9099;47.958;11.366;2024-02-15T08:16:37;20.60;99.90
17948;DHT22;9099;47.958;11.366;2024-02-15T08:19:05;21.20;99.90
17948;DHT22;9099;47.958;11.366;2024-02-15T08:21:33;21.60;99.90
17948;DHT22;9099;47.958;11.366;2024-02-15T08:24:02;21.70;99.90
17948;DHT22;9099;47.958;11.366;2024-02-15T08:26:33;21.80;99.90
17948;DHT22;9099;47.958;11.366;2024-02-15T08:29:01;21.90;99.90
17948;DHT22;9099;47.958;11.366;2024-02-15T08:31:28;22.20;99.90
17948;DHT22;9099;47.958;11.366;2024-02-15T08:33:56;22.80;99.90
17948;DHT22;9099;47.958;11.366;2024-02-15T08:36:23;22.90;99.90
17948;DHT22;9099;47.958;11.366;2024-02-15T08:38:50;23.10;99.90
17948;DHT22;9099;47.958;11.366;2024-02-15T08:41:17;23.50;99.90
17948;DHT22;9099;47.958;11.366;2024-02-15T08:43:47;23.50;99.90
17948;DHT22;9099;47.958;11.366;2024-02-15T08:46:15;23.50;99.90
17948;DHT22;9099;47.958;11.366;2024-02-15T08:48:42;24.00;99.90
17948;DHT22;9099;47.958;11.366;2024-02-15T08:51:09;24.20;99.90
17948;DHT22;9099;47.958;11.366;2024-02-15T08:53:35;24.50;99.90
17948;DHT22;9099;47.958;11.366;2024-02-15T08:56:03;24.50;99.90
17948;DHT22;9099;47.958;11.366;2024-02-15T08:58:30;24.00;99.70
17948;DHT22;9099;47.958;11.366;2024-02-15T09:00:58;23.60;99.90
17948;DHT22;9099;47.958;11.366;2024-02-15T09:03:25;23.80;99.90
17948;DHT22;9099;47.958;11.366;2024-02-15T09:05:52;24.00;99.60
17948;DHT22;9099;47.958;11.366;2024-02-15T09:08:19;23.50;99.90
17948;DHT22;9099;47.958;11.366;2024-02-15T09:10:46;23.30;99.90
17948;DHT22;9099;47.958;11.366;2024-02-15T09:13:13;23.00;99.90
17948;DHT22;9099;47.958;11.366;2024-02-15T09:15:40;23.00;99.90
17948;DHT22;9099;47.958;11.366;2024-02-15T09:18:09;22.80;99.90
17948;DHT22;9099;47.958;11.366;2024-02-15T09:20:36;22.50;99.90
17948;DHT22;9099;47.958;11.366;2024-02-15T09:23:05;22.50;99.90
17948;DHT22;9099;47.958;11.366;2024-02-15T09:25:37;23.50;99.90
17948;DHT22;9099;47.958;11.366;2024-02-15T09:28:04;23.80;99.40
17948;DHT22;9099;47.958;11.366;2024-02-15T09:30:31;23.80;99.90
17948;DHT22;9099;47.958;11.366;2024-02-15T09:33:01;25.00;99.40
17948;DHT22;9099;47.958;11.366;2024-02-15T09:35:31;24.90;99.00
17948;DHT22;9099;47.958;11.366;2024-02-15T09:37:58;24.50;99.50
17948;DHT22;9099;47.958;11.366;2024-02-15T09:40:25;24.40;98.50
17948;DHT22;9099;47.958;11.366;2024-02-15T09:42:54;24.80;99.10
17948;DHT22;9099;47.958;11.366;2024-02-15T09:45:21;25.30;98.80
17948;DHT22;9099;47.958;11.366;2024-02-15T09:47:50;25.10;98.30
17948;DHT22;9099;47.958;11.366;2024-02-15T09:50:18;24.50;98.20
17948;DHT22;9099;47.958;11.366;2024-02-15T09:52:50;24.60;97.90
17948;DHT22;9099;47.958;11.366;2024-02-15T09:55:16;24.40;99.70
17948;DHT22;9099;47.958;11.366;2024-02-15T09:57:45;24.60;98.20
17948;DHT22;9099;47.958;11.366;2024-02-15T10:00:13;24.70;98.00
17948;DHT22;9099;47.958;11.366;2024-02-15T10:02:41;24.30;97.60
17948;DHT22;9099;47.958;11.366;2024-02-15T10:05:10;24.30;98.40
17948;DHT22;9099;47.958;11.366;2024-02-15T10:07:38;24.70;98.10
17948;DHT22;9099;47.958;11.366;2024-02-15T10:10:16;24.70;97.60
17948;DHT22;9099;47.958;11.366;2024-02-15T10:12:45;25.20;98.00
17948;DHT22;9099;47.958;11.366;2024-02-15T10:15:27;25.60;97.30
17948;DHT22;9099;47.958;11.366;2024-02-15T10:17:54;25.80;96.80
17948;DHT22;9099;47.958;11.366;2024-02-15T10:20:22;25.70;98.20
17948;DHT22;9099;47.958;11.366;2024-02-15T10:22:51;25.70;96.30
17948;DHT22;9099;47.958;11.366;2024-02-15T10:25:20;25.00;96.70
17948;DHT22;9099;47.958;11.366;2024-02-15T10:27:48;24.70;98.00
17948;DHT22;9099;47.958;11.366;2024-02-15T10:30:16;25.00;96.30
17948;DHT22;9099;47.958;11.366;2024-02-15T10:32:44;24.90;96.40
17948;DHT22;9099;47.958;11.366;2024-02-15T10:35:19;24.90;96.40
17948;DHT22;9099;47.958;11.366;2024-02-15T10:37:47;24.50;97.50
17948;DHT22;9099;47.958;11.366;2024-02-15T10:40:17;24.60;96.50
17948;DHT22;9099;47.958;11.366;2024-02-15T10:42:46;24.80;97.90
17948;DHT22;9099;47.958;11.366;2024-02-15T10:45:15;24.60;96.40
17948;DHT22;9099;47.958;11.366;2024-02-15T10:47:44;24.40;96.50
17948;DHT22;9099;47.958;11.366;2024-02-15T10:50:13;24.90;97.10
17948;DHT22;9099;47.958;11.366;2024-02-15T10:52:45;24.30;98.30
17948;DHT22;9099;47.958;11.366;2024-02-15T10:55:21;24.40;96.70
17948;DHT22;9099;47.958;11.366;2024-02-15T10:57:51;24.30;97.80
17948;DHT22;9099;47.958;11.366;2024-02-15T11:00:22;23.80;97.60
17948;DHT22;9099;47.958;11.366;2024-02-15T11:03:00;24.00;97.40
17948;DHT22;9099;47.958;11.366;2024-02-15T11:05:33;24.40;97.30
17948;DHT22;9099;47.958;11.366;2024-02-15T11:08:02;24.40;96.90
17948;DHT22;9099;47.958;11.366;2024-02-15T11:10:30;23.70;97.40
17948;DHT22;9099;47.958;11.366;2024-02-15T11:12:59;23.40;97.50
17948;DHT22;9099;47.958;11.366;2024-02-15T11:15:40;22.90;98.30
17948;DHT22;9099;47.958;11.366;2024-02-15T11:18:10;22.40;98.60
17948;DHT22;9099;47.958;11.366;2024-02-15T11:20:47;22.10;99.00
17948;DHT22;9099;47.958;11.366;2024-02-15T11:23:25;21.80;99.90
17948;DHT22;9099;47.958;11.366;2024-02-15T11:25:56;21.70;99.80
17948;DHT22;9099;47.958;11.366;2024-02-15T11:28:37;21.60;99.90
17948;DHT22;9099;47.958;11.366;2024-02-15T11:31:08;21.70;99.70
17948;DHT22;9099;47.958;11.366;2024-02-15T11:33:36;21.30;99.90
17948;DHT22;9099;47.958;11.366;2024-02-15T11:36:05;21.30;99.90
17948;DHT22;9099;47.958;11.366;2024-02-15T11:38:32;20.90;99.90
17948;DHT22;9099;47.958;11.366;2024-02-15T11:41:03;20.80;99.90
17948;DHT22;9099;47.958;11.366;2024-02-15T11:43:52;20.80;99.90
17948;DHT22;9099;47.958;11.366;2024-02-15T11:46:22;20.60;99.90
17948;DHT22;9099;47.958;11.366;2024-02-15T11:48:52;20.30;99.90
17948;DHT22;9099;47.958;11.366;2024-02-15T11:51:40;20.20;99.90
17948;DHT22;9099;47.958;11.366;2024-02-15T11:54:10;20.00;99.90
17948;DHT22;9099;47.958;11.366;2024-02-15T11:56:52;19.70;99.90
17948;DHT22;9099;47.958;11.366;2024-02-15T11:59:38;19.80;99.90
17948;DHT22;9099;47.958;11.366;2024-02-15T12:02:18;19.70;99.90
17948;DHT22;9099;47.958;11.366;2024-02-15T12:05:17;19.60;99.90
17948;DHT22;9099;47.958;11.366;2024-02-15T12:08:02;19.70;99.90
17948;DHT22;9099;47.958;11.366;2024-02-15T12:10:57;19.60;99.90
17948;DHT22;9099;47.958;11.366;2024-02-15T12:13:41;19.20;99.90
17948;DHT22;9099;47.958;11.366;2024-02-15T12:16:26;18.80;99.90
17948;DHT22;9099;47.958;11.366;2024-02-15T12:19:11;18.60;99.90
17948;DHT22;9099;47.958;11.366;2024-02-15T12:21:38;18.60;99.90
17948;DHT22;9099;47.958;11.366;2024-02-15T12:24:07;18.70;99.90
17948;DHT22;9099;47.958;11.366;2024-02-15T12:26:34;18.50;99.90
17948;DHT22;9099;47.958;11.366;2024-02-15T12:29:01;18.30;99.90
17948;DHT22;9099;47.958;11.366;2024-02-15T12:31:29;18.40;99.90
17948;DHT22;9099;47.958;11.366;2024-02-15T12:34:00;18.60;99.90
17948;DHT22;9099;47.958;11.366;2024-02-15T12:36:28;18.90;99.90
17948;DHT22;9099;47.958;11.366;2024-02-15T12:39:01;19.10;99.90
17948;DHT22;9099;47.958;11.366;2024-02-15T12:41:35;19.10;99.90
17948;DHT22;9099;47.958;11.366;2024-02-15T12:44:02;18.90;99.90
17948;DHT22;9099;47.958;11.366;2024-02-15T12:46:31;18.70;99.90
17948;DHT22;9099;47.958;11.366;2024-02-15T12:49:10;18.40;99.90
17948;DHT22;9099;47.958;11.366;2024-02-15T12:51:39;18.40;99.90
17948;DHT22;9099;47.958;11.366;2024-02-15T12:54:10;18.30;99.90
17948;DHT22;9099;47.958;11.366;2024-02-15T12:56:39;18.10;99.90
17948;DHT22;9099;47.958;11.366;2024-02-15T13:02:19;18.10;99.90
17948;DHT22;9099;47.958;11.366;2024-02-15T13:04:46;18.10;99.90
17948;DHT22;9099;47.958;11.366;2024-02-15T13:07:13;18.00;99.90
17948;DHT22;9099;47.958;11.366;2024-02-15T13:09:40;18.20;99.90
17948;DHT22;9099;47.958;11.366;2024-02-15T13:12:08;18.20;99.90
17948;DHT22;9099;47.958;11.366;2024-02-15T13:14:37;18.20;99.90
17948;DHT22;9099;47.958;11.366;2024-02-15T13:17:04;18.10;99.90
17948;DHT22;9099;47.958;11.366;2024-02-15T13:19:33;17.80;99.90
17948;DHT22;9099;47.958;11.366;2024-02-15T13:22:01;17.80;99.90
17948;DHT22;9099;47.958;11.366;2024-02-15T13:24:28;17.80;99.90
17948;DHT22;9099;47.958;11.366;2024-02-15T13:26:55;17.90;99.90
17948;DHT22;9099;47.958;11.366;2024-02-15T13:29:22;18.10;99.90
17948;DHT22;9099;47.958;11.366;2024-02-15T13:31:49;18.50;99.90
17948;DHT22;9099;47.958;11.366;2024-02-15T13:34:16;18.80;99.90
17948;DHT22;9099;47.958;11.366;2024-02-15T13:36:45;19.10;99.90
17948;DHT22;9099;47.958;11.366;2024-02-15T13:39:11;19.10;99.90
17948;DHT22;9099;47.958;11.366;2024-02-15T13:41:38;19.00;99.90
17948;DHT22;9099;47.958;11.366;2024-02-15T13:44:05;19.20;99.90
17948;DHT22;9099;47.958;11.366;2024-02-15T13:46:32;19.40;99.90
17948;DHT22;9099;47.958;11.366;2024-02-15T13:48:59;19.20;99.90
17948;DHT22;9099;47.958;11.366;2024-02-15T13:51:27;19.70;99.90
17948;DHT22;9099;47.958;11.366;2024-02-15T13:53:55;20.10;99.90
17948;DHT22;9099;47.958;11.366;2024-02-15T13:56:22;20.10;99.90
17948;DHT22;9099;47.958;11.366;2024-02-15T13:58:49;20.20;99.90
17948;DHT22;9099;47.958;11.366;2024-02-15T14:01:15;20.50;99.90
17948;DHT22;9099;47.958;11.366;2024-02-15T14:03:44;20.90;99.90
17948;DHT22;9099;47.958;11.366;2024-02-15T14:06:11;20.80;99.90
17948;DHT22;9099;47.958;11.366;2024-02-15T14:08:40;20.50;99.90
17948;DHT22;9099;47.958;11.366;2024-02-15T14:11:08;20.50;99.90
17948;DHT22;9099;47.958;11.366;2024-02-15T14:13:36;20.80;99.90
17948;DHT22;9099;47.958;11.366;2024-02-15T14:16:03;21.00;99.90
17948;DHT22;9099;47.958;11.366;2024-02-15T14:18:31;21.10;99.90
17948;DHT22;9099;47.958;11.366;2024-02-15T14:20:58;21.40;99.90
17948;DHT22;9099;47.958;11.366;2024-02-15T14:23:26;21.10;99.90
17948;DHT22;9099;47.958;11.366;2024-02-15T14:25:53;20.60;99.90
17948;DHT22;9099;47.958;11.366;2024-02-15T14:28:27;20.20;99.90
17948;DHT22;9099;47.958;11.366;2024-02-15T14:30:53;19.60;99.90
17948;DHT22;9099;47.958;11.366;2024-02-15T14:33:37;19.20;99.90
17948;DHT22;9099;47.958;11.366;2024-02-15T14:36:05;18.80;99.90
17948;DHT22;9099;47.958;11.366;2024-02-15T14:38:32;18.60;99.90
17948;DHT22;9099;47.958;11.366;2024-02-15T14:40:59;18.40;99.90
17948;DHT22;9099;47.958;11.366;2024-02-15T14:43:29;18.30;99.90
17948;DHT22;9099;47.958;11.366;2024-02-15T14:45:56;18.10;99.90
17948;DHT22;9099;47.958;11.366;2024-02-15T14:48:23;17.90;99.90
17948;DHT22;9099;47.958;11.366;2024-02-15T14:50:50;17.70;99.90
17948;DHT22;9099;47.958;11.366;2024-02-15T14:53:18;17.70;99.90
17948;DHT22;9099;47.958;11.366;2024-02-15T14:55:44;17.70;99.90
17948;DHT22;9099;47.958;11.366;2024-02-15T14:58:12;17.50;99.90
17948;DHT22;9099;47.958;11.366;2024-02-15T15:00:40;17.40;99.90
17948;DHT22;9099;47.958;11.366;2024-02-15T15:03:10;17.20;99.90
17948;DHT22;9099;47.958;11.366;2024-02-15T15:05:39;17.10;99.90
17948;DHT22;9099;47.958;11.366;2024-02-15T15:08:23;17.00;99.90
17948;DHT22;9099;47.958;11.366;2024-02-15T15:11:09;16.80;99.90
17948;DHT22;9099;47.958;11.366;2024-02-15T15:13:53;16.70;99.90
17948;DHT22;9099;47.958;11.366;2024-02-15T15:16:21;16.50;99.90
17948;DHT22;9099;47.958;11.366;2024-02-15T15:18:51;16.40;99.90
17948;DHT22;9099;47.958;11.366;2024-02-15T15:21:18;16.30;99.90
17948;DHT22;9099;47.958;11.366;2024-02-15T15:23:45;16.10;99.90
17948;DHT22;9099;47.958;11.366;2024-02-15T15:26:18;15.90;99.90
17948;DHT22;9099;47.958;11.366;2024-02-15T15:28:45;15.80;99.90
17948;DHT22;9099;47.958;11.366;2024-02-15T15:31:13;15.80;99.90
17948;DHT22;9099;47.958;11.366;2024-02-15T15:33:42;15.80;99.90
17948;DHT22;9099;47.958;11.366;2024-02-15T15:36:09;15.70;99.90
17948;DHT22;9099;47.958;11.366;2024-02-15T15:38:36;15.60;99.90
17948;DHT22;9099;47.958;11.366;2024-02-15T15:41:03;15.50;99.90
17948;DHT22;9099;47.958;11.366;2024-02-15T15:43:30;15.50;99.90
17948;DHT22;9099;47.958;11.366;2024-02-15T15:45:57;15.40;99.90
17948;DHT22;9099;47.958;11.366;2024-02-15T15:48:24;15.40;99.90
17948;DHT22;9099;47.958;11.366;2024-02-15T15:50:53;15.30;99.90
17948;DHT22;9099;47.958;11.366;2024-02-15T15:53:19;15.20;99.90